sensor_id;sensor_type;location;lat;lon;timestamp;temperature;humidity
57108;DHT22;42987;52.916;6.542;2022-09-12T00:00:10;14.60;99.90
57108;DHT22;42987;52.916;6.542;2022-09-12T00:02:36;14.60;99.90
57108;DHT22;42987;52.916;6.542;2022-09-12T00:05:02;14.50;99.90
57108;DHT22;42987;52.916;6.542;2022-09-12T00:07:28;14.50;99.90
57108;DHT22;42987;52.916;6.542;2022-09-12T00:09:54;14.40;99.90
57108;DHT22;42987;52.916;6.542;2022-09-12T00:12:20;14.40;99.90
57108;DHT22;42987;52.916;6.542;2022-09-12T00:14:46;14.30;99.90
57108;DHT22;42987;52.916;6.542;2022-09-12T00:17:11;14.30;99.90
57108;DHT22;42987;52.916;6.542;2022-09-12T00:19:37;14.30;99.90
57108;DHT22;42987;52.916;6.542;2022-09-12T00:22:03;14.20;99.90
57108;DHT22;42987;52.916;6.542;2022-09-12T00:24:29;14.10;99.90
57108;DHT22;42987;52.916;6.542;2022-09-12T00:26:55;14.10;99.90
57108;DHT22;42987;52.916;6.542;2022-09-12T00:29:21;14.10;99.90
57108;DHT22;42987;52.916;6.542;2022-09-12T00:31:47;14.10;99.90
57108;DHT22;42987;52.916;6.542;2022-09-12T00:34:14;14.10;99.90
57108;DHT22;42987;52.916;6.542;2022-09-12T00:36:39;14.10;99.90
57108;DHT22;42987;52.916;6.542;2022-09-12T00:39:11;14.00;99.90
57108;DHT22;42987;52.916;6.542;2022-09-12T00:41:39;14.00;99.90
57108;DHT22;42987;52.916;6.542;2022-09-12T00:51:41;14.00;99.90
57108;DHT22;42987;52.916;6.542;2022-09-12T00:54:13;14.00;99.90
57108;DHT22;42987;52.916;6.542;2022-09-12T00:56:42;14.00;99.90
57108;DHT22;42987;52.916;6.542;2022-09-12T00:59:16;13.90;99.90
57108;DHT22;42987;52.916;6.542;2022-09-12T01:01:43;13.90;99.90
57108;DHT22;42987;52.916;6.542;2022-09-12T01:04:11;13.90;99.90
57108;DHT22;42987;52.916;6.542;2022-09-12T01:06:40;13.80;99.90
57108;DHT22;42987;52.916;6.542;2022-09-12T01:09:06;13.70;99.90
57108;DHT22;42987;52.916;6.542;2022-09-12T01:11:37;13.70;99.90
57108;DHT22;42987;52.916;6.542;2022-09-12T01:14:04;13.70;99.90
57108;DHT22;42987;52.916;6.542;2022-09-12T01:16:30;13.60;99.90
57108;DHT22;42987;52.916;6.542;2022-09-12T01:27:49;13.70;99.90
57108;DHT22;42987;52.916;6.542;2022-09-12T01:41:59;13.70;99.90
57108;DHT22;42987;52.916;6.542;2022-09-12T01:47:16;13.70;99.90
57108;DHT22;42987;52.916;6.542;2022-09-12T01:50:00;13.70;99.90
57108;DHT22;42987;52.916;6.542;2022-09-12T01:52:41;13.70;99.90
57108;DHT22;42987;52.916;6.542;2022-09-12T01:55:15;13.70;99.90
57108;DHT22;42987;52.916;6.542;2022-09-12T01:57:51;13.60;99.90
57108;DHT22;42987;52.916;6.542;2022-09-12T02:00:22;13.70;99.90
57108;DHT22;42987;52.916;6.542;2022-09-12T02:03:13;13.60;99.90
57108;DHT22;42987;52.916;6.542;2022-09-12T02:05:49;13.60;99.90
57108;DHT22;42987;52.916;6.542;2022-09-12T02:08:19;13.60;99.90
57108;DHT22;42987;52.916;6.542;2022-09-12T02:11:02;13.60;99.90
57108;DHT22;42987;52.916;6.542;2022-09-12T02:16:34;13.70;99.90
57108;DHT22;42987;52.916;6.542;2022-09-12T02:19:09;13.70;99.90
57108;DHT22;42987;52.916;6.542;2022-09-12T02:21:38;13.80;99.90
57108;DHT22;42987;52.916;6.542;2022-09-12T02:24:06;13.80;99.90
57108;DHT22;42987;52.916;6.542;2022-09-12T02:26:57;13.80;99.90
57108;DHT22;42987;52.916;6.542;2022-09-12T02:29:24;13.80;99.90
57108;DHT22;42987;52.916;6.542;2022-09-12T02:31:57;13.90;99.90
57108;DHT22;42987;52.916;6.542;2022-09-12T02:36:57;13.90;99.90
57108;DHT22;42987;52.916;6.542;2022-09-12T02:39:29;13.90;99.90
57108;DHT22;42987;52.916;6.542;2022-09-12T02:41:57;13.90;99.90
57108;DHT22;42987;52.916;6.542;2022-09-12T02:44:24;13.90;99.90
57108;DHT22;42987;52.916;6.542;2022-09-12T02:49:29;13.90;99.90
57108;DHT22;42987;52.916;6.542;2022-09-12T02:51:55;13.90;99.90
57108;DHT22;42987;52.916;6.542;2022-09-12T02:54:22;13.90;99.90
57108;DHT22;42987;52.916;6.542;2022-09-12T02:56:48;13.90;99.90
57108;DHT22;42987;52.916;6.542;2022-09-12T02:59:17;13.90;99.90
57108;DHT22;42987;52.916;6.542;2022-09-12T03:11:28;13.80;99.90
57108;DHT22;42987;52.916;6.542;2022-09-12T03:17:08;13.80;99.90
57108;DHT22;42987;52.916;6.542;2022-09-12T03:20:02;13.70;99.90
57108;DHT22;42987;52.916;6.542;2022-09-12T03:22:53;13.70;99.90
57108;DHT22;42987;52.916;6.542;2022-09-12T03:28:38;13.70;99.90
57108;DHT22;42987;52.916;6.542;2022-09-12T03:31:16;13.70;99.90
57108;DHT22;42987;52.916;6.542;2022-09-12T03:33:42;13.70;99.90
57108;DHT22;42987;52.916;6.542;2022-09-12T03:36:28;13.70;99.90
57108;DHT22;42987;52.916;6.542;2022-09-12T03:38:55;13.70;99.90
57108;DHT22;42987;52.916;6.542;2022-09-12T03:41:21;13.70;99.90
57108;DHT22;42987;52.916;6.542;2022-09-12T03:43:47;13.70;99.90
57108;DHT22;42987;52.916;6.542;2022-09-12T03:46:16;13.70;99.90
57108;DHT22;42987;52.916;6.542;2022-09-12T03:48:42;13.70;99.90
57108;DHT22;42987;52.916;6.542;2022-09-12T03:51:09;13.70;99.90
57108;DHT22;42987;52.916;6.542;2022-09-12T03:53:38;13.70;99.90
57108;DHT22;42987;52.916;6.542;2022-09-12T03:56:09;13.70;99.90
57108;DHT22;42987;52.916;6.542;2022-09-12T03:58:36;13.70;99.90
57108;DHT22;42987;52.916;6.542;2022-09-12T04:01:09;13.70;99.90
57108;DHT22;42987;52.916;6.542;2022-09-12T04:03:41;13.70;99.90
57108;DHT22;42987;52.916;6.542;2022-09-12T04:06:11;13.60;99.90
57108;DHT22;42987;52.916;6.542;2022-09-12T04:08:39;13.60;99.90
57108;DHT22;42987;52.916;6.542;2022-09-12T04:11:14;13.60;99.90
57108;DHT22;42987;52.916;6.542;2022-09-12T04:13:42;13.60;99.90
57108;DHT22;42987;52.916;6.542;2022-09-12T04:16:13;13.60;99.90
57108;DHT22;42987;52.916;6.542;2022-09-12T04:18:39;13.60;99.90
57108;DHT22;42987;52.916;6.542;2022-09-12T04:21:07;13.60;99.90
57108;DHT22;42987;52.916;6.542;2022-09-12T04:23:33;13.60;99.90
57108;DHT22;42987;52.916;6.542;2022-09-12T04:26:00;13.50;99.90
57108;DHT22;42987;52.916;6.542;2022-09-12T04:28:27;13.50;99.90
57108;DHT22;42987;52.916;6.542;2022-09-12T04:31:00;13.50;99.90
57108;DHT22;42987;52.916;6.542;2022-09-12T04:33:26;13.50;99.90
57108;DHT22;42987;52.916;6.542;2022-09-12T04:35:51;13.40;99.90
57108;DHT22;42987;52.916;6.542;2022-09-12T04:38:17;13.40;99.90
57108;DHT22;42987;52.916;6.542;2022-09-12T04:40:43;13.40;99.90
57108;DHT22;42987;52.916;6.542;2022-09-12T04:43:09;13.40;99.90
57108;DHT22;42987;52.916;6.542;2022-09-12T04:45:34;13.40;99.90
57108;DHT22;42987;52.916;6.542;2022-09-12T04:48:00;13.40;99.90
57108;DHT22;42987;52.916;6.542;2022-09-12T04:50:26;13.40;99.90
57108;DHT22;42987;52.916;6.542;2022-09-12T04:52:53;13.40;99.90
57108;DHT22;42987;52.916;6.542;2022-09-12T04:55:20;13.40;99.90
57108;DHT22;42987;52.916;6.542;2022-09-12T04:57:47;13.40;99.90
57108;DHT22;42987;52.916;6.542;2022-09-12T05:00:13;13.40;99.90
57108;DHT22;42987;52.916;6.542;2022-09-12T05:02:40;13.40;99.90
57108;DHT22;42987;52.916;6.542;2022-09-12T05:05:06;13.40;99.90
57108;DHT22;42987;52.916;6.542;2022-09-12T05:07:32;13.50;99.90
57108;DHT22;42987;52.916;6.542;2022-09-12T05:10:01;13.50;99.90
57108;DHT22;42987;52.916;6.542;2022-09-12T05:12:29;13.40;99.90
57108;DHT22;42987;52.916;6.542;2022-09-12T05:14:56;13.60;99.90
57108;DHT22;42987;52.916;6.542;2022-09-12T05:17:22;13.60;99.90
57108;DHT22;42987;52.916;6.542;2022-09-12T05:19:48;13.70;99.90
57108;DHT22;42987;52.916;6.542;2022-09-12T05:22:13;13.70;99.90
57108;DHT22;42987;52.916;6.542;2022-09-12T05:24:39;13.80;99.90
57108;DHT22;42987;52.916;6.542;2022-09-12T05:27:08;13.90;99.90
57108;DHT22;42987;52.916;6.542;2022-09-12T05:29:34;13.90;99.90
57108;DHT22;42987;52.916;6.542;2022-09-12T05:32:03;13.90;99.90
57108;DHT22;42987;52.916;6.542;2022-09-12T05:34:29;14.00;99.90
57108;DHT22;42987;52.916;6.542;2022-09-12T05:36:55;14.00;99.90
57108;DHT22;42987;52.916;6.542;2022-09-12T05:39:21;14.00;99.90
57108;DHT22;42987;52.916;6.542;2022-09-12T05:41:47;14.00;99.90
57108;DHT22;42987;52.916;6.542;2022-09-12T05:44:13;14.00;99.90
57108;DHT22;42987;52.916;6.542;2022-09-12T05:46:43;14.10;99.90
57108;DHT22;42987;52.916;6.542;2022-09-12T05:49:11;14.10;99.90
57108;DHT22;42987;52.916;6.542;2022-09-12T05:51:40;14.10;99.90
57108;DHT22;42987;52.916;6.542;2022-09-12T05:54:09;14.20;99.90
57108;DHT22;42987;52.916;6.542;2022-09-12T05:56:38;14.20;99.90
57108;DHT22;42987;52.916;6.542;2022-09-12T05:59:16;14.20;99.90
57108;DHT22;42987;52.916;6.542;2022-09-12T06:01:43;14.20;99.90
57108;DHT22;42987;52.916;6.542;2022-09-12T06:04:09;14.20;99.90
57108;DHT22;42987;52.916;6.542;2022-09-12T06:06:41;14.20;99.90
57108;DHT22;42987;52.916;6.542;2022-09-12T06:09:14;14.30;99.90
57108;DHT22;42987;52.916;6.542;2022-09-12T06:11:41;14.20;99.90
57108;DHT22;42987;52.916;6.542;2022-09-12T06:14:08;14.20;99.90
57108;DHT22;42987;52.916;6.542;2022-09-12T06:16:35;14.20;99.90
57108;DHT22;42987;52.916;6.542;2022-09-12T06:19:21;14.30;99.90
57108;DHT22;42987;52.916;6.542;2022-09-12T06:21:52;14.30;99.90
57108;DHT22;42987;52.916;6.542;2022-09-12T06:24:20;14.20;99.90
57108;DHT22;42987;52.916;6.542;2022-09-12T06:26:47;14.30;99.90
57108;DHT22;42987;52.916;6.542;2022-09-12T06:29:16;14.30;99.90
57108;DHT22;42987;52.916;6.542;2022-09-12T06:31:43;14.40;99.90
57108;DHT22;42987;52.916;6.542;2022-09-12T06:34:12;14.40;99.90
57108;DHT22;42987;52.916;6.542;2022-09-12T06:36:41;14.40;99.90
57108;DHT22;42987;52.916;6.542;2022-09-12T06:39:17;14.50;99.90
57108;DHT22;42987;52.916;6.542;2022-09-12T06:41:44;14.50;99.90
57108;DHT22;42987;52.916;6.542;2022-09-12T06:44:15;14.50;99.90
57108;DHT22;42987;52.916;6.542;2022-09-12T06:46:42;14.50;99.90
57108;DHT22;42987;52.916;6.542;2022-09-12T06:49:07;14.60;99.90
57108;DHT22;42987;52.916;6.542;2022-09-12T06:51:36;14.60;99.90
57108;DHT22;42987;52.916;6.542;2022-09-12T06:54:03;14.60;99.90
57108;DHT22;42987;52.916;6.542;2022-09-12T06:56:29;14.60;99.90
57108;DHT22;42987;52.916;6.542;2022-09-12T06:58:56;14.70;99.90
57108;DHT22;42987;52.916;6.542;2022-09-12T07:01:25;14.70;99.90
57108;DHT22;42987;52.916;6.542;2022-09-12T07:03:56;14.80;99.90
57108;DHT22;42987;52.916;6.542;2022-09-12T07:06:29;14.80;99.90
57108;DHT22;42987;52.916;6.542;2022-09-12T07:09:03;14.80;99.90
57108;DHT22;42987;52.916;6.542;2022-09-12T07:11:34;14.90;99.90
57108;DHT22;42987;52.916;6.542;2022-09-12T07:14:13;14.90;99.90
57108;DHT22;42987;52.916;6.542;2022-09-12T07:16:40;14.90;99.90
57108;DHT22;42987;52.916;6.542;2022-09-12T07:19:09;14.90;99.90
57108;DHT22;42987;52.916;6.542;2022-09-12T07:21:38;15.00;99.90
57108;DHT22;42987;52.916;6.542;2022-09-12T07:24:05;15.00;99.90
57108;DHT22;42987;52.916;6.542;2022-09-12T07:26:33;15.00;99.90
57108;DHT22;42987;52.916;6.542;2022-09-12T07:28:59;15.10;99.90
57108;DHT22;42987;52.916;6.542;2022-09-12T07:31:26;15.10;99.90
57108;DHT22;42987;52.916;6.542;2022-09-12T07:33:52;15.20;99.90
57108;DHT22;42987;52.916;6.542;2022-09-12T07:36:20;15.20;99.90
57108;DHT22;42987;52.916;6.542;2022-09-12T07:38:47;15.30;99.90
57108;DHT22;42987;52.916;6.542;2022-09-12T07:41:21;15.40;99.90
57108;DHT22;42987;52.916;6.542;2022-09-12T07:43:51;15.40;99.90
57108;DHT22;42987;52.916;6.542;2022-09-12T07:46:17;15.60;99.90
57108;DHT22;42987;52.916;6.542;2022-09-12T07:48:44;15.70;99.90
57108;DHT22;42987;52.916;6.542;2022-09-12T07:51:13;15.80;99.90
57108;DHT22;42987;52.916;6.542;2022-09-12T07:53:41;15.80;99.90
57108;DHT22;42987;52.916;6.542;2022-09-12T07:56:11;15.90;99.90
57108;DHT22;42987;52.916;6.542;2022-09-12T07:58:38;15.90;99.90
57108;DHT22;42987;52.916;6.542;2022-09-12T08:01:07;15.90;99.90
57108;DHT22;42987;52.916;6.542;2022-09-12T08:03:37;15.90;99.90
57108;DHT22;42987;52.916;6.542;2022-09-12T08:06:08;15.90;99.90
57108;DHT22;42987;52.916;6.542;2022-09-12T08:08:36;16.00;99.90
57108;DHT22;42987;52.916;6.542;2022-09-12T08:11:05;16.00;99.90
57108;DHT22;42987;52.916;6.542;2022-09-12T08:13:33;16.00;99.90
57108;DHT22;42987;52.916;6.542;2022-09-12T08:16:00;16.10;99.90
57108;DHT22;42987;52.916;6.542;2022-09-12T08:18:27;16.10;99.90
57108;DHT22;42987;52.916;6.542;2022-09-12T08:20:58;16.20;99.90
57108;DHT22;42987;52.916;6.542;2022-09-12T08:23:23;16.20;99.90
57108;DHT22;42987;52.916;6.542;2022-09-12T08:25:50;16.20;99.90
57108;DHT22;42987;52.916;6.542;2022-09-12T08:28:16;16.30;99.90
57108;DHT22;42987;52.916;6.542;2022-09-12T08:30:42;16.40;99.90
57108;DHT22;42987;52.916;6.542;2022-09-12T08:33:08;16.50;99.90
57108;DHT22;42987;52.916;6.542;2022-09-12T08:35:34;16.60;99.90
57108;DHT22;42987;52.916;6.542;2022-09-12T08:37:59;16.60;99.90
57108;DHT22;42987;52.916;6.542;2022-09-12T08:40:28;16.70;99.90
57108;DHT22;42987;52.916;6.542;2022-09-12T08:43:24;16.80;99.90
57108;DHT22;42987;52.916;6.542;2022-09-12T08:46:01;16.90;99.90
57108;DHT22;42987;52.916;6.542;2022-09-12T08:48:29;17.00;99.90
57108;DHT22;42987;52.916;6.542;2022-09-12T08:50:55;17.10;99.90
57108;DHT22;42987;52.916;6.542;2022-09-12T08:53:25;17.20;99.90
57108;DHT22;42987;52.916;6.542;2022-09-12T08:55:58;17.30;99.90
57108;DHT22;42987;52.916;6.542;2022-09-12T08:58:26;17.50;99.90
57108;DHT22;42987;52.916;6.542;2022-09-12T09:01:19;17.50;99.90
57108;DHT22;42987;52.916;6.542;2022-09-12T09:04:23;17.60;99.90
57108;DHT22;42987;52.916;6.542;2022-09-12T09:07:03;17.80;99.90
57108;DHT22;42987;52.916;6.542;2022-09-12T09:12:41;17.90;99.90
57108;DHT22;42987;52.916;6.542;2022-09-12T09:17:44;18.10;99.90
57108;DHT22;42987;52.916;6.542;2022-09-12T09:20:29;18.10;99.90
57108;DHT22;42987;52.916;6.542;2022-09-12T09:23:24;18.20;99.90
57108;DHT22;42987;52.916;6.542;2022-09-12T09:28:45;18.40;99.90
57108;DHT22;42987;52.916;6.542;2022-09-12T09:31:17;18.60;99.90
57108;DHT22;42987;52.916;6.542;2022-09-12T09:33:46;18.70;99.90
57108;DHT22;42987;52.916;6.542;2022-09-12T09:36:22;18.80;99.90
57108;DHT22;42987;52.916;6.542;2022-09-12T09:39:30;18.80;99.90
57108;DHT22;42987;52.916;6.542;2022-09-12T09:42:25;18.90;99.90
57108;DHT22;42987;52.916;6.542;2022-09-12T09:44:53;19.00;99.90
57108;DHT22;42987;52.916;6.542;2022-09-12T09:47:20;19.20;99.90
57108;DHT22;42987;52.916;6.542;2022-09-12T09:49:46;19.30;99.90
57108;DHT22;42987;52.916;6.542;2022-09-12T09:52:16;19.50;99.90
57108;DHT22;42987;52.916;6.542;2022-09-12T09:54:54;19.60;99.90
57108;DHT22;42987;52.916;6.542;2022-09-12T10:05:51;20.10;99.90
57108;DHT22;42987;52.916;6.542;2022-09-12T10:08:26;20.20;99.90
57108;DHT22;42987;52.916;6.542;2022-09-12T10:11:20;20.40;99.90
57108;DHT22;42987;52.916;6.542;2022-09-12T10:16:30;20.80;99.90
57108;DHT22;42987;52.916;6.542;2022-09-12T10:18:59;20.90;99.90
57108;DHT22;42987;52.916;6.542;2022-09-12T10:26:34;21.30;99.90
57108;DHT22;42987;52.916;6.542;2022-09-12T10:29:21;21.40;99.90
57108;DHT22;42987;52.916;6.542;2022-09-12T10:31:52;21.50;99.90
57108;DHT22;42987;52.916;6.542;2022-09-12T10:34:28;21.70;99.90
57108;DHT22;42987;52.916;6.542;2022-09-12T10:38:16;21.80;99.90
57108;DHT22;42987;52.916;6.542;2022-09-12T10:40:22;21.90;99.90
57108;DHT22;42987;52.916;6.542;2022-09-12T10:42:56;21.90;99.90
57108;DHT22;42987;52.916;6.542;2022-09-12T10:47:50;21.90;99.90
57108;DHT22;42987;52.916;6.542;2022-09-12T10:50:40;22.00;99.90
57108;DHT22;42987;52.916;6.542;2022-09-12T10:53:24;22.00;99.90
57108;DHT22;42987;52.916;6.542;2022-09-12T10:56:02;22.10;99.90
57108;DHT22;42987;52.916;6.542;2022-09-12T10:58:35;22.20;99.90
57108;DHT22;42987;52.916;6.542;2022-09-12T11:07:05;22.50;99.90
57108;DHT22;42987;52.916;6.542;2022-09-12T11:21:18;23.00;99.90
57108;DHT22;42987;52.916;6.542;2022-09-12T11:43:34;23.30;99.90
57108;DHT22;42987;52.916;6.542;2022-09-12T11:48:46;23.00;99.90
57108;DHT22;42987;52.916;6.542;2022-09-12T11:51:34;23.00;99.90
57108;DHT22;42987;52.916;6.542;2022-09-12T11:56:46;23.00;99.90
57108;DHT22;42987;52.916;6.542;2022-09-12T11:59:36;23.10;99.90
57108;DHT22;42987;52.916;6.542;2022-09-12T12:02:10;23.20;99.90
57108;DHT22;42987;52.916;6.542;2022-09-12T12:04:43;23.30;99.90
57108;DHT22;42987;52.916;6.542;2022-09-12T12:07:15;23.40;99.90
57108;DHT22;42987;52.916;6.542;2022-09-12T12:09:48;23.50;99.90
57108;DHT22;42987;52.916;6.542;2022-09-12T12:12:24;23.60;99.90
57108;DHT22;42987;52.916;6.542;2022-09-12T12:14:53;23.70;99.90
57108;DHT22;42987;52.916;6.542;2022-09-12T12:17:23;23.80;99.30
57108;DHT22;42987;52.916;6.542;2022-09-12T12:20:02;23.80;99.50
57108;DHT22;42987;52.916;6.542;2022-09-12T12:22:28;23.90;99.90
57108;DHT22;42987;52.916;6.542;2022-09-12T12:25:00;23.90;98.00
57108;DHT22;42987;52.916;6.542;2022-09-12T12:27:49;23.90;96.80
57108;DHT22;42987;52.916;6.542;2022-09-12T12:35:44;23.90;95.20
57108;DHT22;42987;52.916;6.542;2022-09-12T12:38:36;23.80;94.60
57108;DHT22;42987;52.916;6.542;2022-09-12T12:43:52;23.80;94.80
57108;DHT22;42987;52.916;6.542;2022-09-12T12:46:26;23.70;94.40
57108;DHT22;42987;52.916;6.542;2022-09-12T12:49:08;23.80;96.10
57108;DHT22;42987;52.916;6.542;2022-09-12T12:52:03;23.90;95.70
57108;DHT22;42987;52.916;6.542;2022-09-12T12:54:48;24.00;96.10
57108;DHT22;42987;52.916;6.542;2022-09-12T12:57:16;24.10;95.70
57108;DHT22;42987;52.916;6.542;2022-09-12T13:00:00;24.10;95.70
57108;DHT22;42987;52.916;6.542;2022-09-12T13:04:53;24.20;95.40
57108;DHT22;42987;52.916;6.542;2022-09-12T13:07:38;24.30;95.40
57108;DHT22;42987;52.916;6.542;2022-09-12T13:10:06;24.40;95.70
57108;DHT22;42987;52.916;6.542;2022-09-12T13:12:42;24.40;94.90
57108;DHT22;42987;52.916;6.542;2022-09-12T13:18:13;24.50;92.90
57108;DHT22;42987;52.916;6.542;2022-09-12T13:20:53;24.40;93.60
57108;DHT22;42987;52.916;6.542;2022-09-12T13:23:22;24.40;93.90
57108;DHT22;42987;52.916;6.542;2022-09-12T13:25:54;24.40;92.60
57108;DHT22;42987;52.916;6.542;2022-09-12T13:28:20;24.30;91.20
57108;DHT22;42987;52.916;6.542;2022-09-12T13:31:00;24.30;91.60
57108;DHT22;42987;52.916;6.542;2022-09-12T13:33:46;24.20;91.50
57108;DHT22;42987;52.916;6.542;2022-09-12T13:44:44;24.20;93.70
57108;DHT22;42987;52.916;6.542;2022-09-12T13:47:23;24.20;93.40
57108;DHT22;42987;52.916;6.542;2022-09-12T13:49:50;24.20;93.00
57108;DHT22;42987;52.916;6.542;2022-09-12T13:52:22;24.10;93.00
57108;DHT22;42987;52.916;6.542;2022-09-12T13:54:53;24.10;95.00
57108;DHT22;42987;52.916;6.542;2022-09-12T13:57:32;24.10;94.70
57108;DHT22;42987;52.916;6.542;2022-09-12T14:00:22;24.00;94.30
57108;DHT22;42987;52.916;6.542;2022-09-12T14:02:49;24.00;96.60
57108;DHT22;42987;52.916;6.542;2022-09-12T14:05:36;24.00;95.90
57108;DHT22;42987;52.916;6.542;2022-09-12T14:08:06;24.00;95.40
57108;DHT22;42987;52.916;6.542;2022-09-12T14:10:36;23.90;96.00
57108;DHT22;42987;52.916;6.542;2022-09-12T14:13:12;23.90;95.50
57108;DHT22;42987;52.916;6.542;2022-09-12T14:15:44;23.90;96.00
57108;DHT22;42987;52.916;6.542;2022-09-12T14:18:25;23.80;95.30
57108;DHT22;42987;52.916;6.542;2022-09-12T14:20:53;23.90;95.80
57108;DHT22;42987;52.916;6.542;2022-09-12T14:23:32;23.90;96.50
57108;DHT22;42987;52.916;6.542;2022-09-12T14:26:01;23.90;95.20
57108;DHT22;42987;52.916;6.542;2022-09-12T14:28:29;23.90;93.90
57108;DHT22;42987;52.916;6.542;2022-09-12T14:31:21;23.80;94.80
57108;DHT22;42987;52.916;6.542;2022-09-12T14:34:17;23.80;95.80
57108;DHT22;42987;52.916;6.542;2022-09-12T14:36:53;23.70;97.20
57108;DHT22;42987;52.916;6.542;2022-09-12T14:39:32;23.70;96.50
57108;DHT22;42987;52.916;6.542;2022-09-12T14:42:10;23.80;94.50
57108;DHT22;42987;52.916;6.542;2022-09-12T14:44:38;23.70;94.10
57108;DHT22;42987;52.916;6.542;2022-09-12T14:47:21;23.80;93.90
57108;DHT22;42987;52.916;6.542;2022-09-12T14:49:48;23.70;94.70
57108;DHT22;42987;52.916;6.542;2022-09-12T14:52:32;23.70;93.50
57108;DHT22;42987;52.916;6.542;2022-09-12T14:57:45;23.70;93.20
57108;DHT22;42987;52.916;6.542;2022-09-12T15:00:17;23.60;93.00
57108;DHT22;42987;52.916;6.542;2022-09-12T15:02:46;23.60;94.10
57108;DHT22;42987;52.916;6.542;2022-09-12T15:05:16;23.60;94.70
57108;DHT22;42987;52.916;6.542;2022-09-12T15:07:59;23.60;94.80
57108;DHT22;42987;52.916;6.542;2022-09-12T15:10:33;23.60;93.50
57108;DHT22;42987;52.916;6.542;2022-09-12T15:13:10;23.60;93.30
57108;DHT22;42987;52.916;6.542;2022-09-12T15:15:40;23.60;93.40
57108;DHT22;42987;52.916;6.542;2022-09-12T15:18:06;23.50;93.00
57108;DHT22;42987;52.916;6.542;2022-09-12T15:20:32;23.50;92.50
57108;DHT22;42987;52.916;6.542;2022-09-12T15:23:00;23.40;92.70
57108;DHT22;42987;52.916;6.542;2022-09-12T15:25:26;23.50;92.20
57108;DHT22;42987;52.916;6.542;2022-09-12T15:27:52;23.50;90.90
57108;DHT22;42987;52.916;6.542;2022-09-12T15:30:18;23.50;91.30
57108;DHT22;42987;52.916;6.542;2022-09-12T15:32:44;23.40;91.40
57108;DHT22;42987;52.916;6.542;2022-09-12T15:35:20;23.30;91.70
57108;DHT22;42987;52.916;6.542;2022-09-12T15:37:47;23.20;91.20
57108;DHT22;42987;52.916;6.542;2022-09-12T15:40:14;23.10;92.30
57108;DHT22;42987;52.916;6.542;2022-09-12T15:42:41;23.00;92.50
57108;DHT22;42987;52.916;6.542;2022-09-12T15:45:22;23.00;92.70
57108;DHT22;42987;52.916;6.542;2022-09-12T15:47:50;22.90;93.10
57108;DHT22;42987;52.916;6.542;2022-09-12T15:50:16;23.00;92.80
57108;DHT22;42987;52.916;6.542;2022-09-12T15:52:42;22.90;93.40
57108;DHT22;42987;52.916;6.542;2022-09-12T15:55:21;22.90;93.60
57108;DHT22;42987;52.916;6.542;2022-09-12T15:57:47;22.90;93.80
57108;DHT22;42987;52.916;6.542;2022-09-12T16:00:15;22.80;94.00
57108;DHT22;42987;52.916;6.542;2022-09-12T16:02:43;22.80;94.60
57108;DHT22;42987;52.916;6.542;2022-09-12T16:05:27;22.80;94.70
57108;DHT22;42987;52.916;6.542;2022-09-12T16:07:54;22.80;95.00
57108;DHT22;42987;52.916;6.542;2022-09-12T16:10:26;22.80;95.10
57108;DHT22;42987;52.916;6.542;2022-09-12T16:12:53;22.80;95.10
57108;DHT22;42987;52.916;6.542;2022-09-12T16:15:22;22.70;95.40
57108;DHT22;42987;52.916;6.542;2022-09-12T16:17:48;22.70;95.40
57108;DHT22;42987;52.916;6.542;2022-09-12T16:20:15;22.70;96.00
57108;DHT22;42987;52.916;6.542;2022-09-12T16:22:41;22.70;95.30
57108;DHT22;42987;52.916;6.542;2022-09-12T16:25:07;22.70;95.40
57108;DHT22;42987;52.916;6.542;2022-09-12T16:27:34;22.70;95.90
57108;DHT22;42987;52.916;6.542;2022-09-12T16:30:01;22.70;96.40
57108;DHT22;42987;52.916;6.542;2022-09-12T16:32:30;22.60;96.30
57108;DHT22;42987;52.916;6.542;2022-09-12T16:34:56;22.60;96.30
57108;DHT22;42987;52.916;6.542;2022-09-12T16:37:22;22.60;96.40
57108;DHT22;42987;52.916;6.542;2022-09-12T16:39:48;22.60;96.60
57108;DHT22;42987;52.916;6.542;2022-09-12T16:42:17;22.60;96.40
57108;DHT22;42987;52.916;6.542;2022-09-12T16:44:45;22.60;96.80
57108;DHT22;42987;52.916;6.542;2022-09-12T16:47:12;22.50;97.20
57108;DHT22;42987;52.916;6.542;2022-09-12T16:49:38;22.50;97.30
57108;DHT22;42987;52.916;6.542;2022-09-12T16:52:07;22.50;97.80
57108;DHT22;42987;52.916;6.542;2022-09-12T16:54:33;22.40;98.50
57108;DHT22;42987;52.916;6.542;2022-09-12T16:57:01;22.40;98.90
57108;DHT22;42987;52.916;6.542;2022-09-12T16:59:37;22.30;99.40
57108;DHT22;42987;52.916;6.542;2022-09-12T17:02:03;22.30;99.60
57108;DHT22;42987;52.916;6.542;2022-09-12T17:04:28;22.30;99.00
57108;DHT22;42987;52.916;6.542;2022-09-12T17:06:54;22.30;98.80
57108;DHT22;42987;52.916;6.542;2022-09-12T17:09:22;22.30;98.70
57108;DHT22;42987;52.916;6.542;2022-09-12T17:11:47;22.20;98.70
57108;DHT22;42987;52.916;6.542;2022-09-12T17:14:15;22.20;99.20
57108;DHT22;42987;52.916;6.542;2022-09-12T17:16:44;22.10;99.90
57108;DHT22;42987;52.916;6.542;2022-09-12T17:19:24;22.10;99.90
57108;DHT22;42987;52.916;6.542;2022-09-12T17:21:57;22.00;99.90
57108;DHT22;42987;52.916;6.542;2022-09-12T17:24:26;22.00;99.90
57108;DHT22;42987;52.916;6.542;2022-09-12T17:26:52;21.90;99.90
57108;DHT22;42987;52.916;6.542;2022-09-12T17:29:18;21.80;99.90
57108;DHT22;42987;52.916;6.542;2022-09-12T17:31:44;21.70;99.90
57108;DHT22;42987;52.916;6.542;2022-09-12T17:34:11;21.60;99.90
57108;DHT22;42987;52.916;6.542;2022-09-12T17:36:39;21.60;99.90
57108;DHT22;42987;52.916;6.542;2022-09-12T17:39:05;21.40;99.90
57108;DHT22;42987;52.916;6.542;2022-09-12T17:41:31;21.40;99.90
57108;DHT22;42987;52.916;6.542;2022-09-12T17:43:59;21.40;99.90
57108;DHT22;42987;52.916;6.542;2022-09-12T17:46:31;21.30;99.90
57108;DHT22;42987;52.916;6.542;2022-09-12T17:48:59;21.30;99.90
57108;DHT22;42987;52.916;6.542;2022-09-12T17:51:27;21.30;99.90
57108;DHT22;42987;52.916;6.542;2022-09-12T17:54:15;21.20;99.90
57108;DHT22;42987;52.916;6.542;2022-09-12T17:56:42;21.10;99.90
57108;DHT22;42987;52.916;6.542;2022-09-12T17:59:13;21.00;99.90
57108;DHT22;42987;52.916;6.542;2022-09-12T18:01:39;21.00;99.90
57108;DHT22;42987;52.916;6.542;2022-09-12T18:04:24;20.80;99.90
57108;DHT22;42987;52.916;6.542;2022-09-12T18:06:51;20.80;99.90
57108;DHT22;42987;52.916;6.542;2022-09-12T18:09:24;20.70;99.90
57108;DHT22;42987;52.916;6.542;2022-09-12T18:11:53;20.70;99.90
57108;DHT22;42987;52.916;6.542;2022-09-12T18:14:19;20.60;99.90
57108;DHT22;42987;52.916;6.542;2022-09-12T18:16:46;20.60;99.90
57108;DHT22;42987;52.916;6.542;2022-09-12T18:19:12;20.50;99.90
57108;DHT22;42987;52.916;6.542;2022-09-12T18:21:39;20.30;99.90
57108;DHT22;42987;52.916;6.542;2022-09-12T18:24:08;20.30;99.90